sensor_id;sensor_type;location;lat;lon;timestamp;temperature;humidity
51908;DHT22;39320;53.214;6.556;2023-03-23T00:02:28;10.90;99.90
51908;DHT22;39320;53.214;6.556;2023-03-23T00:04:55;10.90;99.90
51908;DHT22;39320;53.214;6.556;2023-03-23T00:07:22;10.90;99.90
51908;DHT22;39320;53.214;6.556;2023-03-23T00:09:49;10.90;99.90
51908;DHT22;39320;53.214;6.556;2023-03-23T00:12:30;10.90;99.90
51908;DHT22;39320;53.214;6.556;2023-03-23T00:15:03;10.90;99.90
51908;DHT22;39320;53.214;6.556;2023-03-23T00:17:30;10.90;99.90
51908;DHT22;39320;53.214;6.556;2023-03-23T00:19:58;10.90;99.90
51908;DHT22;39320;53.214;6.556;2023-03-23T00:22:27;10.90;99.90
51908;DHT22;39320;53.214;6.556;2023-03-23T00:24:53;11.00;99.90
51908;DHT22;39320;53.214;6.556;2023-03-23T00:27:20;11.00;99.90
51908;DHT22;39320;53.214;6.556;2023-03-23T00:29:49;10.90;99.90
51908;DHT22;39320;53.214;6.556;2023-03-23T00:32:19;10.90;99.90
51908;DHT22;39320;53.214;6.556;2023-03-23T00:34:46;10.90;99.90
51908;DHT22;39320;53.214;6.556;2023-03-23T00:37:14;10.80;99.90
51908;DHT22;39320;53.214;6.556;2023-03-23T00:39:42;10.80;99.90
51908;DHT22;39320;53.214;6.556;2023-03-23T00:42:11;10.80;99.90
51908;DHT22;39320;53.214;6.556;2023-03-23T00:44:38;10.90;99.90
51908;DHT22;39320;53.214;6.556;2023-03-23T00:47:05;11.00;99.90
51908;DHT22;39320;53.214;6.556;2023-03-23T00:49:32;11.00;99.90
51908;DHT22;39320;53.214;6.556;2023-03-23T00:52:00;11.00;99.90
51908;DHT22;39320;53.214;6.556;2023-03-23T00:54:27;11.00;99.90
51908;DHT22;39320;53.214;6.556;2023-03-23T00:56:53;11.00;99.90
51908;DHT22;39320;53.214;6.556;2023-03-23T00:59:20;11.10;99.90
51908;DHT22;39320;53.214;6.556;2023-03-23T01:01:46;11.00;99.90
51908;DHT22;39320;53.214;6.556;2023-03-23T01:04:12;11.10;99.90
51908;DHT22;39320;53.214;6.556;2023-03-23T01:06:39;11.20;99.90
51908;DHT22;39320;53.214;6.556;2023-03-23T01:09:11;11.20;99.90
51908;DHT22;39320;53.214;6.556;2023-03-23T01:11:37;11.10;99.90
51908;DHT22;39320;53.214;6.556;2023-03-23T01:14:03;11.10;99.90
51908;DHT22;39320;53.214;6.556;2023-03-23T01:16:29;11.10;99.90
51908;DHT22;39320;53.214;6.556;2023-03-23T01:18:55;11.00;99.90
51908;DHT22;39320;53.214;6.556;2023-03-23T01:21:22;11.00;99.90
51908;DHT22;39320;53.214;6.556;2023-03-23T01:23:48;11.00;99.90
51908;DHT22;39320;53.214;6.556;2023-03-23T01:26:20;11.00;99.90
51908;DHT22;39320;53.214;6.556;2023-03-23T01:28:47;11.00;99.90
51908;DHT22;39320;53.214;6.556;2023-03-23T01:31:15;11.00;99.90
51908;DHT22;39320;53.214;6.556;2023-03-23T01:33:42;10.90;99.90
51908;DHT22;39320;53.214;6.556;2023-03-23T01:36:11;10.90;99.90
51908;DHT22;39320;53.214;6.556;2023-03-23T01:38:37;11.00;99.90
51908;DHT22;39320;53.214;6.556;2023-03-23T01:41:04;11.00;99.90
51908;DHT22;39320;53.214;6.556;2023-03-23T01:43:30;11.00;99.90
51908;DHT22;39320;53.214;6.556;2023-03-23T01:45:56;11.10;99.90
51908;DHT22;39320;53.214;6.556;2023-03-23T01:48:26;11.10;99.90
51908;DHT22;39320;53.214;6.556;2023-03-23T01:51:14;11.10;99.90
51908;DHT22;39320;53.214;6.556;2023-03-23T01:53:54;11.10;99.90
51908;DHT22;39320;53.214;6.556;2023-03-23T01:56:25;11.10;99.90
51908;DHT22;39320;53.214;6.556;2023-03-23T01:58:53;11.10;99.90
51908;DHT22;39320;53.214;6.556;2023-03-23T02:01:21;11.10;99.90
51908;DHT22;39320;53.214;6.556;2023-03-23T02:03:47;11.20;99.90
51908;DHT22;39320;53.214;6.556;2023-03-23T02:06:14;11.20;99.90
51908;DHT22;39320;53.214;6.556;2023-03-23T02:08:41;11.20;99.90
51908;DHT22;39320;53.214;6.556;2023-03-23T02:11:17;11.20;99.90
51908;DHT22;39320;53.214;6.556;2023-03-23T02:13:44;11.30;99.90
51908;DHT22;39320;53.214;6.556;2023-03-23T02:18:59;11.30;99.90
51908;DHT22;39320;53.214;6.556;2023-03-23T02:27:09;11.30;99.90
51908;DHT22;39320;53.214;6.556;2023-03-23T02:33:15;11.30;99.90
51908;DHT22;39320;53.214;6.556;2023-03-23T02:41:07;11.40;99.90
51908;DHT22;39320;53.214;6.556;2023-03-23T02:43:40;11.40;99.90
51908;DHT22;39320;53.214;6.556;2023-03-23T02:46:08;11.40;99.90
51908;DHT22;39320;53.214;6.556;2023-03-23T02:48:36;11.40;99.90
51908;DHT22;39320;53.214;6.556;2023-03-23T02:51:04;11.40;99.90
51908;DHT22;39320;53.214;6.556;2023-03-23T02:53:34;11.40;99.90
51908;DHT22;39320;53.214;6.556;2023-03-23T02:56:00;11.40;99.90
51908;DHT22;39320;53.214;6.556;2023-03-23T02:58:28;11.40;99.90
51908;DHT22;39320;53.214;6.556;2023-03-23T03:00:55;11.40;99.90
51908;DHT22;39320;53.214;6.556;2023-03-23T03:03:23;11.40;99.90
51908;DHT22;39320;53.214;6.556;2023-03-23T03:08:53;11.40;99.90
51908;DHT22;39320;53.214;6.556;2023-03-23T03:11:21;11.40;99.90
51908;DHT22;39320;53.214;6.556;2023-03-23T03:17:14;11.50;99.90
51908;DHT22;39320;53.214;6.556;2023-03-23T03:19:46;11.40;99.90
51908;DHT22;39320;53.214;6.556;2023-03-23T03:22:13;11.40;99.90
51908;DHT22;39320;53.214;6.556;2023-03-23T03:24:41;11.40;99.90
51908;DHT22;39320;53.214;6.556;2023-03-23T03:27:13;11.50;99.90
51908;DHT22;39320;53.214;6.556;2023-03-23T03:29:41;11.40;99.90
51908;DHT22;39320;53.214;6.556;2023-03-23T03:32:18;11.40;99.90
51908;DHT22;39320;53.214;6.556;2023-03-23T03:34:45;11.50;99.90
51908;DHT22;39320;53.214;6.556;2023-03-23T03:37:13;11.40;99.90
51908;DHT22;39320;53.214;6.556;2023-03-23T03:39:40;11.40;99.90
51908;DHT22;39320;53.214;6.556;2023-03-23T03:42:06;11.40;99.90
51908;DHT22;39320;53.214;6.556;2023-03-23T03:44:33;11.50;99.90
51908;DHT22;39320;53.214;6.556;2023-03-23T03:46:58;11.50;99.90
51908;DHT22;39320;53.214;6.556;2023-03-23T03:49:24;11.50;99.90
51908;DHT22;39320;53.214;6.556;2023-03-23T03:51:51;11.40;99.90
51908;DHT22;39320;53.214;6.556;2023-03-23T03:54:16;11.50;99.90
51908;DHT22;39320;53.214;6.556;2023-03-23T03:56:42;11.50;99.90
51908;DHT22;39320;53.214;6.556;2023-03-23T03:59:09;11.40;99.90
51908;DHT22;39320;53.214;6.556;2023-03-23T04:01:36;11.50;99.90
51908;DHT22;39320;53.214;6.556;2023-03-23T04:04:03;11.40;99.90
51908;DHT22;39320;53.214;6.556;2023-03-23T04:06:31;11.40;99.90
51908;DHT22;39320;53.214;6.556;2023-03-23T04:08:58;11.30;99.90
51908;DHT22;39320;53.214;6.556;2023-03-23T04:11:26;11.30;99.90
51908;DHT22;39320;53.214;6.556;2023-03-23T04:13:54;11.30;99.90
51908;DHT22;39320;53.214;6.556;2023-03-23T04:16:20;11.20;99.90
51908;DHT22;39320;53.214;6.556;2023-03-23T04:18:46;11.20;99.90
51908;DHT22;39320;53.214;6.556;2023-03-23T04:21:13;11.10;99.90
51908;DHT22;39320;53.214;6.556;2023-03-23T04:23:39;11.00;99.90
51908;DHT22;39320;53.214;6.556;2023-03-23T04:26:06;11.00;99.90
51908;DHT22;39320;53.214;6.556;2023-03-23T04:28:31;10.90;99.90
51908;DHT22;39320;53.214;6.556;2023-03-23T04:30:59;10.90;99.90
51908;DHT22;39320;53.214;6.556;2023-03-23T04:33:27;10.80;99.90
51908;DHT22;39320;53.214;6.556;2023-03-23T04:35:54;10.70;99.90
51908;DHT22;39320;53.214;6.556;2023-03-23T04:38:21;10.70;99.90
51908;DHT22;39320;53.214;6.556;2023-03-23T04:40:50;10.70;99.90
51908;DHT22;39320;53.214;6.556;2023-03-23T04:43:20;10.60;99.90
51908;DHT22;39320;53.214;6.556;2023-03-23T04:45:56;10.70;99.90
51908;DHT22;39320;53.214;6.556;2023-03-23T04:48:24;10.60;99.90
51908;DHT22;39320;53.214;6.556;2023-03-23T04:50:50;10.70;99.90
51908;DHT22;39320;53.214;6.556;2023-03-23T04:53:16;10.70;99.90
51908;DHT22;39320;53.214;6.556;2023-03-23T04:55:43;10.70;99.90
51908;DHT22;39320;53.214;6.556;2023-03-23T04:58:09;10.70;99.90
51908;DHT22;39320;53.214;6.556;2023-03-23T05:00:38;10.70;99.90
51908;DHT22;39320;53.214;6.556;2023-03-23T05:03:04;10.80;99.90
51908;DHT22;39320;53.214;6.556;2023-03-23T05:05:30;10.80;99.90
51908;DHT22;39320;53.214;6.556;2023-03-23T05:07:56;10.80;99.90
51908;DHT22;39320;53.214;6.556;2023-03-23T05:10:22;10.80;99.90
51908;DHT22;39320;53.214;6.556;2023-03-23T05:12:48;10.80;99.90
51908;DHT22;39320;53.214;6.556;2023-03-23T05:15:15;10.80;99.90
51908;DHT22;39320;53.214;6.556;2023-03-23T05:17:42;10.80;99.90
51908;DHT22;39320;53.214;6.556;2023-03-23T05:20:15;10.80;99.90
51908;DHT22;39320;53.214;6.556;2023-03-23T05:22:44;10.90;99.90
51908;DHT22;39320;53.214;6.556;2023-03-23T05:25:10;10.90;99.90
51908;DHT22;39320;53.214;6.556;2023-03-23T05:27:37;10.90;99.90
51908;DHT22;39320;53.214;6.556;2023-03-23T05:30:04;11.00;99.90
51908;DHT22;39320;53.214;6.556;2023-03-23T05:32:30;11.00;99.90
51908;DHT22;39320;53.214;6.556;2023-03-23T05:34:57;11.00;99.90
51908;DHT22;39320;53.214;6.556;2023-03-23T05:37:24;11.00;99.90
51908;DHT22;39320;53.214;6.556;2023-03-23T05:39:52;11.00;99.90
51908;DHT22;39320;53.214;6.556;2023-03-23T05:42:20;11.00;99.90
51908;DHT22;39320;53.214;6.556;2023-03-23T05:44:46;11.00;99.90
51908;DHT22;39320;53.214;6.556;2023-03-23T05:47:13;10.90;99.90
51908;DHT22;39320;53.214;6.556;2023-03-23T05:49:39;11.00;99.90
51908;DHT22;39320;53.214;6.556;2023-03-23T05:52:04;11.10;99.90
51908;DHT22;39320;53.214;6.556;2023-03-23T05:54:30;10.70;99.90
51908;DHT22;39320;53.214;6.556;2023-03-23T05:56:56;11.00;99.90
51908;DHT22;39320;53.214;6.556;2023-03-23T05:59:22;11.00;99.90
51908;DHT22;39320;53.214;6.556;2023-03-23T06:01:48;11.00;99.90
51908;DHT22;39320;53.214;6.556;2023-03-23T06:04:13;11.00;99.90
51908;DHT22;39320;53.214;6.556;2023-03-23T06:06:39;11.00;99.90
51908;DHT22;39320;53.214;6.556;2023-03-23T06:09:07;11.00;99.90
51908;DHT22;39320;53.214;6.556;2023-03-23T06:11:33;11.00;99.90
51908;DHT22;39320;53.214;6.556;2023-03-23T06:13:59;10.90;99.90
51908;DHT22;39320;53.214;6.556;2023-03-23T06:16:25;10.90;99.90
51908;DHT22;39320;53.214;6.556;2023-03-23T06:18:50;10.90;99.90
51908;DHT22;39320;53.214;6.556;2023-03-23T06:21:16;10.90;99.90
51908;DHT22;39320;53.214;6.556;2023-03-23T06:23:47;11.00;99.90
51908;DHT22;39320;53.214;6.556;2023-03-23T06:26:14;11.00;99.90
51908;DHT22;39320;53.214;6.556;2023-03-23T06:28:44;10.90;99.90
51908;DHT22;39320;53.214;6.556;2023-03-23T06:31:10;11.00;99.90
51908;DHT22;39320;53.214;6.556;2023-03-23T06:33:37;11.00;99.90
51908;DHT22;39320;53.214;6.556;2023-03-23T06:36:04;11.00;99.90
51908;DHT22;39320;53.214;6.556;2023-03-23T06:38:30;11.00;99.90
51908;DHT22;39320;53.214;6.556;2023-03-23T06:40:56;11.00;99.90
51908;DHT22;39320;53.214;6.556;2023-03-23T06:43:24;11.00;99.90
51908;DHT22;39320;53.214;6.556;2023-03-23T06:45:50;10.90;99.90
51908;DHT22;39320;53.214;6.556;2023-03-23T06:48:17;10.90;99.90
51908;DHT22;39320;53.214;6.556;2023-03-23T06:50:46;10.80;99.90
51908;DHT22;39320;53.214;6.556;2023-03-23T06:53:12;10.70;99.90
51908;DHT22;39320;53.214;6.556;2023-03-23T06:55:38;10.60;99.90
51908;DHT22;39320;53.214;6.556;2023-03-23T06:58:05;10.60;99.90
51908;DHT22;39320;53.214;6.556;2023-03-23T07:00:32;10.50;99.90
51908;DHT22;39320;53.214;6.556;2023-03-23T07:02:58;10.50;99.90
51908;DHT22;39320;53.214;6.556;2023-03-23T07:05:23;10.50;99.90
51908;DHT22;39320;53.214;6.556;2023-03-23T07:07:50;10.50;99.90
51908;DHT22;39320;53.214;6.556;2023-03-23T07:10:16;10.50;99.90
51908;DHT22;39320;53.214;6.556;2023-03-23T07:12:42;10.50;99.90
51908;DHT22;39320;53.214;6.556;2023-03-23T07:15:08;10.50;99.90
51908;DHT22;39320;53.214;6.556;2023-03-23T07:17:36;10.50;99.90
51908;DHT22;39320;53.214;6.556;2023-03-23T07:20:03;10.50;99.90
51908;DHT22;39320;53.214;6.556;2023-03-23T07:22:30;10.50;99.90
51908;DHT22;39320;53.214;6.556;2023-03-23T07:24:56;10.50;99.90
51908;DHT22;39320;53.214;6.556;2023-03-23T07:27:21;10.60;99.90
51908;DHT22;39320;53.214;6.556;2023-03-23T07:29:47;10.60;99.90
51908;DHT22;39320;53.214;6.556;2023-03-23T07:32:13;10.60;99.90
51908;DHT22;39320;53.214;6.556;2023-03-23T07:34:39;10.60;99.90
51908;DHT22;39320;53.214;6.556;2023-03-23T07:37:05;10.60;99.90
51908;DHT22;39320;53.214;6.556;2023-03-23T07:39:31;10.70;99.90
51908;DHT22;39320;53.214;6.556;2023-03-23T07:41:58;10.70;99.90
51908;DHT22;39320;53.214;6.556;2023-03-23T07:44:24;10.80;99.90
51908;DHT22;39320;53.214;6.556;2023-03-23T07:46:50;10.80;99.90
51908;DHT22;39320;53.214;6.556;2023-03-23T07:49:16;10.90;99.90
51908;DHT22;39320;53.214;6.556;2023-03-23T07:51:43;10.90;99.90
51908;DHT22;39320;53.214;6.556;2023-03-23T07:54:09;10.90;99.90
51908;DHT22;39320;53.214;6.556;2023-03-23T07:56:35;11.00;99.90
51908;DHT22;39320;53.214;6.556;2023-03-23T07:59:02;11.00;99.90
51908;DHT22;39320;53.214;6.556;2023-03-23T08:01:28;11.00;99.90
51908;DHT22;39320;53.214;6.556;2023-03-23T08:03:54;11.10;99.90
51908;DHT22;39320;53.214;6.556;2023-03-23T08:06:23;11.10;99.90
51908;DHT22;39320;53.214;6.556;2023-03-23T08:08:49;11.10;99.90
51908;DHT22;39320;53.214;6.556;2023-03-23T08:11:17;11.10;99.90
51908;DHT22;39320;53.214;6.556;2023-03-23T08:13:44;11.20;99.90
51908;DHT22;39320;53.214;6.556;2023-03-23T08:16:10;11.20;99.90
51908;DHT22;39320;53.214;6.556;2023-03-23T08:18:37;11.20;99.90
51908;DHT22;39320;53.214;6.556;2023-03-23T08:21:06;11.20;99.90
51908;DHT22;39320;53.214;6.556;2023-03-23T08:23:36;11.20;99.90
51908;DHT22;39320;53.214;6.556;2023-03-23T08:26:05;11.20;99.90
51908;DHT22;39320;53.214;6.556;2023-03-23T08:28:33;11.20;99.90
51908;DHT22;39320;53.214;6.556;2023-03-23T08:30:58;11.20;99.90
51908;DHT22;39320;53.214;6.556;2023-03-23T08:33:24;11.20;99.90
51908;DHT22;39320;53.214;6.556;2023-03-23T08:35:57;11.20;99.90
51908;DHT22;39320;53.214;6.556;2023-03-23T08:38:24;11.20;99.90
51908;DHT22;39320;53.214;6.556;2023-03-23T08:40:50;11.20;99.90
51908;DHT22;39320;53.214;6.556;2023-03-23T08:43:17;11.20;99.90
51908;DHT22;39320;53.214;6.556;2023-03-23T08:45:43;11.20;99.90
51908;DHT22;39320;53.214;6.556;2023-03-23T08:48:09;11.20;99.90
51908;DHT22;39320;53.214;6.556;2023-03-23T08:50:36;11.20;99.90
51908;DHT22;39320;53.214;6.556;2023-03-23T08:53:02;11.30;99.90
51908;DHT22;39320;53.214;6.556;2023-03-23T08:55:28;11.30;99.90
51908;DHT22;39320;53.214;6.556;2023-03-23T08:57:54;11.30;99.90
51908;DHT22;39320;53.214;6.556;2023-03-23T09:00:21;11.40;99.90
51908;DHT22;39320;53.214;6.556;2023-03-23T09:02:51;11.40;99.90
51908;DHT22;39320;53.214;6.556;2023-03-23T09:05:20;11.40;99.90
51908;DHT22;39320;53.214;6.556;2023-03-23T09:07:49;11.50;99.90
51908;DHT22;39320;53.214;6.556;2023-03-23T09:10:16;11.50;99.90
51908;DHT22;39320;53.214;6.556;2023-03-23T09:12:43;11.50;99.90
51908;DHT22;39320;53.214;6.556;2023-03-23T09:15:11;11.50;99.90
51908;DHT22;39320;53.214;6.556;2023-03-23T09:17:50;11.50;99.90
51908;DHT22;39320;53.214;6.556;2023-03-23T09:20:19;11.50;99.90
51908;DHT22;39320;53.214;6.556;2023-03-23T09:22:47;11.50;99.90
51908;DHT22;39320;53.214;6.556;2023-03-23T09:25:15;11.50;99.90
51908;DHT22;39320;53.214;6.556;2023-03-23T09:27:44;11.50;99.90
51908;DHT22;39320;53.214;6.556;2023-03-23T09:30:14;11.50;99.90
51908;DHT22;39320;53.214;6.556;2023-03-23T09:32:40;11.50;99.90
51908;DHT22;39320;53.214;6.556;2023-03-23T09:35:09;11.50;99.90
51908;DHT22;39320;53.214;6.556;2023-03-23T09:37:38;11.60;99.90
51908;DHT22;39320;53.214;6.556;2023-03-23T09:40:06;11.70;99.90
51908;DHT22;39320;53.214;6.556;2023-03-23T09:50:40;12.00;99.90
51908;DHT22;39320;53.214;6.556;2023-03-23T09:53:15;12.00;99.90
51908;DHT22;39320;53.214;6.556;2023-03-23T09:55:45;12.00;99.90
51908;DHT22;39320;53.214;6.556;2023-03-23T09:58:22;12.00;99.90
51908;DHT22;39320;53.214;6.556;2023-03-23T10:01:05;11.90;99.90
51908;DHT22;39320;53.214;6.556;2023-03-23T10:03:39;11.90;99.90
51908;DHT22;39320;53.214;6.556;2023-03-23T10:06:09;11.80;99.90
51908;DHT22;39320;53.214;6.556;2023-03-23T10:08:49;11.80;99.90
51908;DHT22;39320;53.214;6.556;2023-03-23T10:11:41;11.70;99.90
51908;DHT22;39320;53.214;6.556;2023-03-23T10:14:29;11.70;99.90
51908;DHT22;39320;53.214;6.556;2023-03-23T10:17:32;11.70;99.90
51908;DHT22;39320;53.214;6.556;2023-03-23T10:20:19;11.70;99.90
51908;DHT22;39320;53.214;6.556;2023-03-23T10:25:32;11.60;99.90
51908;DHT22;39320;53.214;6.556;2023-03-23T10:28:17;11.60;99.90
51908;DHT22;39320;53.214;6.556;2023-03-23T10:30:57;11.60;99.90
51908;DHT22;39320;53.214;6.556;2023-03-23T10:33:25;11.70;99.90
51908;DHT22;39320;53.214;6.556;2023-03-23T10:36:03;11.60;99.90
51908;DHT22;39320;53.214;6.556;2023-03-23T10:41:15;11.70;99.90
51908;DHT22;39320;53.214;6.556;2023-03-23T10:43:42;11.60;99.90
51908;DHT22;39320;53.214;6.556;2023-03-23T10:48:44;11.70;99.90
51908;DHT22;39320;53.214;6.556;2023-03-23T10:51:11;11.70;99.90
51908;DHT22;39320;53.214;6.556;2023-03-23T10:53:50;11.70;99.90
51908;DHT22;39320;53.214;6.556;2023-03-23T10:56:40;11.70;99.90
51908;DHT22;39320;53.214;6.556;2023-03-23T10:59:19;11.80;99.90
51908;DHT22;39320;53.214;6.556;2023-03-23T11:01:51;11.80;99.90
51908;DHT22;39320;53.214;6.556;2023-03-23T11:04:18;11.90;99.90
51908;DHT22;39320;53.214;6.556;2023-03-23T11:06:59;11.90;99.90
51908;DHT22;39320;53.214;6.556;2023-03-23T11:09:50;12.00;99.90
51908;DHT22;39320;53.214;6.556;2023-03-23T11:12:18;12.10;99.90
51908;DHT22;39320;53.214;6.556;2023-03-23T11:14:44;12.20;99.90
51908;DHT22;39320;53.214;6.556;2023-03-23T11:17:26;12.20;99.90
51908;DHT22;39320;53.214;6.556;2023-03-23T11:19:55;12.30;99.90
51908;DHT22;39320;53.214;6.556;2023-03-23T11:22:29;12.40;99.90
51908;DHT22;39320;53.214;6.556;2023-03-23T11:25:00;12.60;99.90
51908;DHT22;39320;53.214;6.556;2023-03-23T11:27:28;12.60;99.90
51908;DHT22;39320;53.214;6.556;2023-03-23T11:30:22;12.60;99.90
51908;DHT22;39320;53.214;6.556;2023-03-23T11:32:49;12.70;99.90
51908;DHT22;39320;53.214;6.556;2023-03-23T11:35:27;12.70;99.90
51908;DHT22;39320;53.214;6.556;2023-03-23T11:37:58;12.70;99.90
51908;DHT22;39320;53.214;6.556;2023-03-23T11:40:31;12.70;99.90
51908;DHT22;39320;53.214;6.556;2023-03-23T11:43:13;12.70;99.90
51908;DHT22;39320;53.214;6.556;2023-03-23T11:51:30;13.00;99.90
51908;DHT22;39320;53.214;6.556;2023-03-23T11:54:26;13.10;99.90
51908;DHT22;39320;53.214;6.556;2023-03-23T11:56:54;13.20;99.90
51908;DHT22;39320;53.214;6.556;2023-03-23T11:59:32;13.30;99.90
51908;DHT22;39320;53.214;6.556;2023-03-23T12:10:38;13.70;99.90
51908;DHT22;39320;53.214;6.556;2023-03-23T12:16:00;13.70;99.90
51908;DHT22;39320;53.214;6.556;2023-03-23T12:18:50;13.70;99.90
51908;DHT22;39320;53.214;6.556;2023-03-23T12:27:30;13.80;99.90
51908;DHT22;39320;53.214;6.556;2023-03-23T12:32:56;13.90;99.90
51908;DHT22;39320;53.214;6.556;2023-03-23T12:41:18;14.00;99.90
51908;DHT22;39320;53.214;6.556;2023-03-23T12:43:52;13.90;99.90
51908;DHT22;39320;53.214;6.556;2023-03-23T12:46:37;13.90;99.90
51908;DHT22;39320;53.214;6.556;2023-03-23T12:49:13;13.80;99.90
51908;DHT22;39320;53.214;6.556;2023-03-23T12:54:55;13.80;99.90
51908;DHT22;39320;53.214;6.556;2023-03-23T12:57:43;13.70;99.90
51908;DHT22;39320;53.214;6.556;2023-03-23T13:00:22;13.70;99.90
51908;DHT22;39320;53.214;6.556;2023-03-23T13:03:14;13.60;99.90
51908;DHT22;39320;53.214;6.556;2023-03-23T13:05:46;13.60;99.90
51908;DHT22;39320;53.214;6.556;2023-03-23T13:08:25;13.60;99.90
51908;DHT22;39320;53.214;6.556;2023-03-23T13:10:57;13.60;99.90
51908;DHT22;39320;53.214;6.556;2023-03-23T13:13:50;13.60;99.90
51908;DHT22;39320;53.214;6.556;2023-03-23T13:16:56;13.70;99.90
51908;DHT22;39320;53.214;6.556;2023-03-23T13:20:01;13.70;99.90
51908;DHT22;39320;53.214;6.556;2023-03-23T13:22:42;13.70;99.90
51908;DHT22;39320;53.214;6.556;2023-03-23T13:25:17;13.60;99.90
51908;DHT22;39320;53.214;6.556;2023-03-23T13:27:44;13.60;99.90
51908;DHT22;39320;53.214;6.556;2023-03-23T13:30:21;13.50;99.90
51908;DHT22;39320;53.214;6.556;2023-03-23T13:32:48;13.50;99.90
51908;DHT22;39320;53.214;6.556;2023-03-23T13:35:17;13.50;99.90
51908;DHT22;39320;53.214;6.556;2023-03-23T13:37:46;13.40;99.90
51908;DHT22;39320;53.214;6.556;2023-03-23T13:40:29;13.40;99.90
51908;DHT22;39320;53.214;6.556;2023-03-23T13:42:58;13.40;99.90
51908;DHT22;39320;53.214;6.556;2023-03-23T13:50:56;13.40;99.90
51908;DHT22;39320;53.214;6.556;2023-03-23T13:53:47;13.30;99.90
51908;DHT22;39320;53.214;6.556;2023-03-23T13:56:35;13.40;99.90
51908;DHT22;39320;53.214;6.556;2023-03-23T13:59:06;13.40;99.90
51908;DHT22;39320;53.214;6.556;2023-03-23T14:01:37;13.50;99.90
51908;DHT22;39320;53.214;6.556;2023-03-23T14:04:11;13.50;99.90
51908;DHT22;39320;53.214;6.556;2023-03-23T14:06:38;13.60;99.90
51908;DHT22;39320;53.214;6.556;2023-03-23T14:11:54;13.90;99.90
51908;DHT22;39320;53.214;6.556;2023-03-23T14:14:28;14.00;99.90
51908;DHT22;39320;53.214;6.556;2023-03-23T14:19:54;14.00;99.90
51908;DHT22;39320;53.214;6.556;2023-03-23T14:22:25;14.10;99.90
51908;DHT22;39320;53.214;6.556;2023-03-23T14:24:58;14.20;99.90
51908;DHT22;39320;53.214;6.556;2023-03-23T14:27:24;14.30;99.90
51908;DHT22;39320;53.214;6.556;2023-03-23T14:30:01;14.30;99.90
51908;DHT22;39320;53.214;6.556;2023-03-23T14:32:29;14.30;99.90
51908;DHT22;39320;53.214;6.556;2023-03-23T14:34:57;14.20;99.90
51908;DHT22;39320;53.214;6.556;2023-03-23T14:37:23;14.20;99.90
51908;DHT22;39320;53.214;6.556;2023-03-23T14:39:53;14.20;99.90
51908;DHT22;39320;53.214;6.556;2023-03-23T14:42:30;14.20;99.90
51908;DHT22;39320;53.214;6.556;2023-03-23T14:44:58;14.30;99.90
51908;DHT22;39320;53.214;6.556;2023-03-23T14:47:30;14.40;99.90
51908;DHT22;39320;53.214;6.556;2023-03-23T14:49:59;14.50;99.90
51908;DHT22;39320;53.214;6.556;2023-03-23T14:52:27;14.50;99.90
51908;DHT22;39320;53.214;6.556;2023-03-23T14:54:54;14.60;99.90
51908;DHT22;39320;53.214;6.556;2023-03-23T14:57:29;14.60;99.90
51908;DHT22;39320;53.214;6.556;2023-03-23T14:59:55;14.70;99.90
51908;DHT22;39320;53.214;6.556;2023-03-23T15:04:57;14.70;99.90
51908;DHT22;39320;53.214;6.556;2023-03-23T15:07:27;14.80;99.90
51908;DHT22;39320;53.214;6.556;2023-03-23T15:09:55;14.70;99.90
51908;DHT22;39320;53.214;6.556;2023-03-23T15:12:23;14.70;99.90
51908;DHT22;39320;53.214;6.556;2023-03-23T15:14:54;14.80;99.90
51908;DHT22;39320;53.214;6.556;2023-03-23T15:17:36;14.90;99.90
51908;DHT22;39320;53.214;6.556;2023-03-23T15:20:29;14.90;99.90
51908;DHT22;39320;53.214;6.556;2023-03-23T15:23:04;14.90;99.90
51908;DHT22;39320;53.214;6.556;2023-03-23T15:25:32;14.90;99.90
51908;DHT22;39320;53.214;6.556;2023-03-23T15:28:09;15.00;99.90
51908;DHT22;39320;53.214;6.556;2023-03-23T15:30:50;15.10;99.90
51908;DHT22;39320;53.214;6.556;2023-03-23T15:33:17;15.10;99.90
51908;DHT22;39320;53.214;6.556;2023-03-23T15:35:50;15.10;99.90
51908;DHT22;39320;53.214;6.556;2023-03-23T15:38:26;15.00;99.90
51908;DHT22;39320;53.214;6.556;2023-03-23T15:40:55;15.00;99.90
51908;DHT22;39320;53.214;6.556;2023-03-23T15:43:27;15.00;99.90
51908;DHT22;39320;53.214;6.556;2023-03-23T15:46:22;15.10;99.90
51908;DHT22;39320;53.214;6.556;2023-03-23T15:51:29;15.10;99.90
51908;DHT22;39320;53.214;6.556;2023-03-23T15:53:56;15.10;99.90
51908;DHT22;39320;53.214;6.556;2023-03-23T15:56:23;15.10;99.90
51908;DHT22;39320;53.214;6.556;2023-03-23T15:58:50;15.00;99.90
51908;DHT22;39320;53.214;6.556;2023-03-23T16:01:21;15.10;99.90
51908;DHT22;39320;53.214;6.556;2023-03-23T16:03:53;14.80;99.90
51908;DHT22;39320;53.214;6.556;2023-03-23T16:06:22;14.70;99.90
51908;DHT22;39320;53.214;6.556;2023-03-23T16:08:48;14.60;99.90
51908;DHT22;39320;53.214;6.556;2023-03-23T16:11:15;14.50;99.90
51908;DHT22;39320;53.214;6.556;2023-03-23T16:13:41;14.40;99.90
51908;DHT22;39320;53.214;6.556;2023-03-23T16:16:30;14.30;99.90
51908;DHT22;39320;53.214;6.556;2023-03-23T16:18:56;14.30;99.90
51908;DHT22;39320;53.214;6.556;2023-03-23T16:21:22;14.10;99.90
51908;DHT22;39320;53.214;6.556;2023-03-23T16:23:48;14.10;99.90
51908;DHT22;39320;53.214;6.556;2023-03-23T16:26:14;14.00;99.90
51908;DHT22;39320;53.214;6.556;2023-03-23T16:28:41;14.00;99.90
51908;DHT22;39320;53.214;6.556;2023-03-23T16:31:07;13.90;99.90
51908;DHT22;39320;53.214;6.556;2023-03-23T16:33:33;13.90;99.90
51908;DHT22;39320;53.214;6.556;2023-03-23T16:35:59;13.90;99.90
51908;DHT22;39320;53.214;6.556;2023-03-23T16:38:25;13.90;99.90
51908;DHT22;39320;53.214;6.556;2023-03-23T16:40:51;13.90;99.90
51908;DHT22;39320;53.214;6.556;2023-03-23T16:43:17;13.80;99.90
51908;DHT22;39320;53.214;6.556;2023-03-23T16:45:44;13.80;99.90
51908;DHT22;39320;53.214;6.556;2023-03-23T16:48:11;13.80;99.90
51908;DHT22;39320;53.214;6.556;2023-03-23T16:50:38;13.70;99.90
51908;DHT22;39320;53.214;6.556;2023-03-23T16:53:05;13.70;99.90
51908;DHT22;39320;53.214;6.556;2023-03-23T16:55:33;13.70;99.90
51908;DHT22;39320;53.214;6.556;2023-03-23T16:57:59;13.60;99.90
51908;DHT22;39320;53.214;6.556;2023-03-23T17:00:25;13.60;99.90
51908;DHT22;39320;53.214;6.556;2023-03-23T17:02:53;13.60;99.90
51908;DHT22;39320;53.214;6.556;2023-03-23T17:05:23;13.60;99.90
51908;DHT22;39320;53.214;6.556;2023-03-23T17:07:49;13.60;99.90
51908;DHT22;39320;53.214;6.556;2023-03-23T17:10:16;13.50;99.90
51908;DHT22;39320;53.214;6.556;2023-03-23T17:12:42;13.50;99.90
51908;DHT22;39320;53.214;6.556;2023-03-23T17:15:09;13.50;99.90
51908;DHT22;39320;53.214;6.556;2023-03-23T17:17:36;13.50;99.90
51908;DHT22;39320;53.214;6.556;2023-03-23T17:20:03;13.50;99.90